sensor_id;sensor_type;location;lat;lon;timestamp;pressure;altitude;pressure_sealevel;temperature;humidity
29569;BME280;16501;51.462;14.346;2022-07-31T00:00:05;100281.06;;;15.26;87.89
29569;BME280;16501;51.462;14.346;2022-07-31T00:02:31;100270.97;;;15.14;88.18
29569;BME280;16501;51.462;14.346;2022-07-31T00:04:56;100274.56;;;15.14;88.16
29569;BME280;16501;51.462;14.346;2022-07-31T00:07:21;100278.19;;;15.20;88.04
29569;BME280;16501;51.462;14.346;2022-07-31T00:09:47;100290.31;;;15.26;88.51
29569;BME280;16501;51.462;14.346;2022-07-31T00:12:12;100286.13;;;15.16;88.68
29569;BME280;16501;51.462;14.346;2022-07-31T00:14:37;100276.34;;;15.12;89.13
29569;BME280;16501;51.462;14.346;2022-07-31T00:17:02;100282.53;;;15.10;89.62
29569;BME280;16501;51.462;14.346;2022-07-31T00:19:28;100260.09;;;14.95;89.64
29569;BME280;16501;51.462;14.346;2022-07-31T00:21:53;100269.88;;;15.00;89.19
29569;BME280;16501;51.462;14.346;2022-07-31T00:24:18;100275.78;;;15.02;89.37
29569;BME280;16501;51.462;14.346;2022-07-31T00:26:44;100289.16;;;15.07;89.43
29569;BME280;16501;51.462;14.346;2022-07-31T00:29:09;100291.78;;;15.16;89.98
29569;BME280;16501;51.462;14.346;2022-07-31T00:31:35;100273.72;;;15.02;90.08
29569;BME280;16501;51.462;14.346;2022-07-31T00:34:00;100268.06;;;14.97;89.70
29569;BME280;16501;51.462;14.346;2022-07-31T00:36:25;100265.50;;;14.99;89.72
29569;BME280;16501;51.462;14.346;2022-07-31T00:38:50;100256.22;;;14.93;89.91
29569;BME280;16501;51.462;14.346;2022-07-31T00:41:16;100272.41;;;14.98;89.72
29569;BME280;16501;51.462;14.346;2022-07-31T00:43:41;100238.41;;;14.75;89.88
29569;BME280;16501;51.462;14.346;2022-07-31T00:46:06;100284.75;;;15.00;90.02
29569;BME280;16501;51.462;14.346;2022-07-31T00:48:32;100269.06;;;14.94;90.18
29569;BME280;16501;51.462;14.346;2022-07-31T00:50:58;100272.94;;;14.96;90.43
29569;BME280;16501;51.462;14.346;2022-07-31T00:53:23;100272.63;;;14.94;90.38
29569;BME280;16501;51.462;14.346;2022-07-31T00:55:49;100279.88;;;15.01;90.25
29569;BME280;16501;51.462;14.346;2022-07-31T00:58:14;100251.75;;;14.80;90.62
29569;BME280;16501;51.462;14.346;2022-07-31T01:00:40;100264.88;;;14.83;90.70
29569;BME280;16501;51.462;14.346;2022-07-31T01:03:05;100231.13;;;14.63;93.12
29569;BME280;16501;51.462;14.346;2022-07-31T01:05:30;100262.88;;;14.89;93.63
29569;BME280;16501;51.462;14.346;2022-07-31T01:07:55;100264.41;;;14.90;94.60
29569;BME280;16501;51.462;14.346;2022-07-31T01:10:37;100273.47;;;15.00;96.25
29569;BME280;16501;51.462;14.346;2022-07-31T01:13:12;100263.41;;;14.94;95.87
29569;BME280;16501;51.462;14.346;2022-07-31T01:15:39;100272.38;;;14.92;94.99
29569;BME280;16501;51.462;14.346;2022-07-31T01:18:05;100269.59;;;14.98;94.99
29569;BME280;16501;51.462;14.346;2022-07-31T01:20:32;100256.69;;;14.85;96.56
29569;BME280;16501;51.462;14.346;2022-07-31T01:26:02;100243.75;;;14.73;97.19
29569;BME280;16501;51.462;14.346;2022-07-31T01:31:42;100243.59;;;14.82;96.63
29569;BME280;16501;51.462;14.346;2022-07-31T01:34:21;100270.63;;;14.95;96.68
29569;BME280;16501;51.462;14.346;2022-07-31T01:36:56;100244.59;;;14.79;96.99
29569;BME280;16501;51.462;14.346;2022-07-31T01:39:22;100250.50;;;14.81;96.93
29569;BME280;16501;51.462;14.346;2022-07-31T01:41:48;100258.22;;;14.86;97.44
29569;BME280;16501;51.462;14.346;2022-07-31T01:44:16;100245.59;;;14.76;99.95
29569;BME280;16501;51.462;14.346;2022-07-31T01:46:43;100234.53;;;14.73;99.39
29569;BME280;16501;51.462;14.346;2022-07-31T01:49:11;100235.78;;;14.71;99.15
29569;BME280;16501;51.462;14.346;2022-07-31T01:51:38;100252.53;;;14.75;98.53
29569;BME280;16501;51.462;14.346;2022-07-31T01:54:05;100259.69;;;14.76;98.40
29569;BME280;16501;51.462;14.346;2022-07-31T01:56:30;100252.72;;;14.71;98.51
29569;BME280;16501;51.462;14.346;2022-07-31T01:58:59;100249.41;;;14.73;98.90
29569;BME280;16501;51.462;14.346;2022-07-31T02:01:26;100247.66;;;14.76;99.35
29569;BME280;16501;51.462;14.346;2022-07-31T02:03:54;100256.91;;;14.82;99.17
29569;BME280;16501;51.462;14.346;2022-07-31T02:06:21;100245.09;;;14.78;100.00
29569;BME280;16501;51.462;14.346;2022-07-31T02:08:50;100227.31;;;14.66;100.00
29569;BME280;16501;51.462;14.346;2022-07-31T02:11:17;100244.09;;;14.81;100.00
29569;BME280;16501;51.462;14.346;2022-07-31T02:13:44;100232.22;;;14.71;100.00
29569;BME280;16501;51.462;14.346;2022-07-31T02:16:11;100252.59;;;14.86;100.00
29569;BME280;16501;51.462;14.346;2022-07-31T02:18:37;100237.44;;;14.84;100.00
29569;BME280;16501;51.462;14.346;2022-07-31T02:21:03;100249.00;;;14.86;100.00
29569;BME280;16501;51.462;14.346;2022-07-31T02:23:29;100233.56;;;14.81;100.00
29569;BME280;16501;51.462;14.346;2022-07-31T02:25:54;100234.63;;;14.84;100.00
29569;BME280;16501;51.462;14.346;2022-07-31T02:28:20;100226.34;;;14.80;100.00
29569;BME280;16501;51.462;14.346;2022-07-31T02:30:47;100239.50;;;14.89;100.00
29569;BME280;16501;51.462;14.346;2022-07-31T02:33:16;100220.69;;;14.75;100.00
29569;BME280;16501;51.462;14.346;2022-07-31T02:35:43;100218.13;;;14.77;100.00
29569;BME280;16501;51.462;14.346;2022-07-31T02:38:09;100227.38;;;14.77;100.00
29569;BME280;16501;51.462;14.346;2022-07-31T02:40:36;100209.38;;;14.69;100.00
29569;BME280;16501;51.462;14.346;2022-07-31T02:43:04;100226.34;;;14.80;100.00
29569;BME280;16501;51.462;14.346;2022-07-31T02:45:29;100213.47;;;14.68;100.00
29569;BME280;16501;51.462;14.346;2022-07-31T02:47:55;100237.44;;;14.84;100.00
29569;BME280;16501;51.462;14.346;2022-07-31T02:50:21;100238.44;;;14.81;100.00
29569;BME280;16501;51.462;14.346;2022-07-31T02:52:46;100231.22;;;14.74;100.00
29569;BME280;16501;51.462;14.346;2022-07-31T02:55:12;100208.03;;;14.64;100.00
29569;BME280;16501;51.462;14.346;2022-07-31T02:57:37;100219.66;;;14.72;100.00
29569;BME280;16501;51.462;14.346;2022-07-31T03:00:19;100228.13;;;14.72;100.00
29569;BME280;16501;51.462;14.346;2022-07-31T03:02:50;100223.75;;;14.71;100.00
29569;BME280;16501;51.462;14.346;2022-07-31T03:05:15;100227.88;;;14.76;100.00
29569;BME280;16501;51.462;14.346;2022-07-31T03:07:41;100203.19;;;14.65;100.00
29569;BME280;16501;51.462;14.346;2022-07-31T03:10:07;100228.16;;;14.78;100.00
29569;BME280;16501;51.462;14.346;2022-07-31T03:12:35;100206.75;;;14.60;100.00
29569;BME280;16501;51.462;14.346;2022-07-31T03:15:02;100203.59;;;14.58;100.00
29569;BME280;16501;51.462;14.346;2022-07-31T03:17:28;100210.84;;;14.59;100.00
29569;BME280;16501;51.462;14.346;2022-07-31T03:19:53;100218.56;;;14.64;100.00
29569;BME280;16501;51.462;14.346;2022-07-31T03:22:18;100204.44;;;14.58;100.00
29569;BME280;16501;51.462;14.346;2022-07-31T03:24:44;100212.44;;;14.65;100.00
29569;BME280;16501;51.462;14.346;2022-07-31T03:27:09;100216.03;;;14.71;100.00
29569;BME280;16501;51.462;14.346;2022-07-31T03:29:38;100191.34;;;14.61;100.00
29569;BME280;16501;51.462;14.346;2022-07-31T03:32:04;100213.78;;;14.76;100.00
29569;BME280;16501;51.462;14.346;2022-07-31T03:34:30;100210.13;;;14.69;100.00
29569;BME280;16501;51.462;14.346;2022-07-31T03:36:55;100203.97;;;14.65;100.00
29569;BME280;16501;51.462;14.346;2022-07-31T03:39:20;100209.63;;;14.71;100.00
29569;BME280;16501;51.462;14.346;2022-07-31T03:41:47;100187.25;;;14.62;100.00
29569;BME280;16501;51.462;14.346;2022-07-31T03:44:13;100185.44;;;14.59;100.00
29569;BME280;16501;51.462;14.346;2022-07-31T03:46:38;100205.78;;;14.68;100.00
29569;BME280;16501;51.462;14.346;2022-07-31T03:49:04;100212.47;;;14.71;100.00
29569;BME280;16501;51.462;14.346;2022-07-31T03:51:29;100204.97;;;14.62;100.00
29569;BME280;16501;51.462;14.346;2022-07-31T03:53:55;100213.47;;;14.68;100.00
29569;BME280;16501;51.462;14.346;2022-07-31T03:56:21;100205.19;;;14.59;100.00
29569;BME280;16501;51.462;14.346;2022-07-31T03:58:48;100214.06;;;14.46;100.00
29569;BME280;16501;51.462;14.346;2022-07-31T04:01:14;100224.22;;;14.64;100.00
29569;BME280;16501;51.462;14.346;2022-07-31T04:03:40;100198.91;;;14.43;100.00
29569;BME280;16501;51.462;14.346;2022-07-31T04:06:06;100196.34;;;14.45;100.00
29569;BME280;16501;51.462;14.346;2022-07-31T04:08:32;100220.53;;;14.58;100.00
29569;BME280;16501;51.462;14.346;2022-07-31T04:10:58;100205.09;;;14.47;100.00
29569;BME280;16501;51.462;14.346;2022-07-31T04:13:23;100225.78;;;14.65;100.00
29569;BME280;16501;51.462;14.346;2022-07-31T04:15:48;100230.84;;;14.61;100.00
29569;BME280;16501;51.462;14.346;2022-07-31T04:18:13;100218.56;;;14.64;100.00
29569;BME280;16501;51.462;14.346;2022-07-31T04:20:39;100231.97;;;14.75;100.00
29569;BME280;16501;51.462;14.346;2022-07-31T04:23:04;100199.56;;;14.59;100.00
29569;BME280;16501;51.462;14.346;2022-07-31T04:25:29;100223.50;;;14.75;100.00
29569;BME280;16501;51.462;14.346;2022-07-31T04:27:54;100214.00;;;14.72;100.00
29569;BME280;16501;51.462;14.346;2022-07-31T04:30:20;100223.00;;;14.76;100.00
29569;BME280;16501;51.462;14.346;2022-07-31T04:32:45;100226.16;;;14.84;100.00
29569;BME280;16501;51.462;14.346;2022-07-31T04:35:10;100217.63;;;14.78;100.00
29569;BME280;16501;51.462;14.346;2022-07-31T04:37:36;100210.97;;;14.81;100.00
29569;BME280;16501;51.462;14.346;2022-07-31T04:40:02;100215.88;;;14.86;100.00
29569;BME280;16501;51.462;14.346;2022-07-31T04:42:27;100213.84;;;14.87;100.00
29569;BME280;16501;51.462;14.346;2022-07-31T04:44:53;100209.00;;;14.93;100.00
29569;BME280;16501;51.462;14.346;2022-07-31T04:47:19;100208.75;;;14.91;100.00
29569;BME280;16501;51.462;14.346;2022-07-31T04:49:44;100220.03;;;14.91;100.00
29569;BME280;16501;51.462;14.346;2022-07-31T04:52:10;100233.66;;;14.93;100.00
29569;BME280;16501;51.462;14.346;2022-07-31T04:54:36;100225.44;;;14.95;100.00
29569;BME280;16501;51.462;14.346;2022-07-31T04:57:02;100215.63;;;14.84;100.00
29569;BME280;16501;51.462;14.346;2022-07-31T04:59:27;100228.28;;;15.00;100.00
29569;BME280;16501;51.462;14.346;2022-07-31T05:01:53;100240.41;;;15.12;100.00
29569;BME280;16501;51.462;14.346;2022-07-31T05:04:18;100237.13;;;15.19;100.00
29569;BME280;16501;51.462;14.346;2022-07-31T05:06:49;100235.31;;;15.22;100.00
29569;BME280;16501;51.462;14.346;2022-07-31T05:09:19;100208.53;;;15.06;100.00
29569;BME280;16501;51.462;14.346;2022-07-31T05:11:46;100218.34;;;15.11;100.00
29569;BME280;16501;51.462;14.346;2022-07-31T05:14:12;100226.06;;;15.16;100.00
29569;BME280;16501;51.462;14.346;2022-07-31T05:16:38;100211.69;;;15.14;100.00
29569;BME280;16501;51.462;14.346;2022-07-31T05:19:04;100231.25;;;15.34;100.00
29569;BME280;16501;51.462;14.346;2022-07-31T05:21:29;100219.44;;;15.30;100.00
29569;BME280;16501;51.462;14.346;2022-07-31T05:23:56;100240.31;;;15.44;100.00
29569;BME280;16501;51.462;14.346;2022-07-31T05:26:22;100229.25;;;15.46;100.00
29569;BME280;16501;51.462;14.346;2022-07-31T05:28:49;100233.66;;;15.58;100.00
29569;BME280;16501;51.462;14.346;2022-07-31T05:31:16;100207.94;;;15.45;100.00
29569;BME280;16501;51.462;14.346;2022-07-31T05:33:42;100240.72;;;15.80;100.00
29569;BME280;16501;51.462;14.346;2022-07-31T05:36:09;100248.44;;;15.85;100.00
29569;BME280;16501;51.462;14.346;2022-07-31T05:38:34;100244.31;;;15.86;100.00
29569;BME280;16501;51.462;14.346;2022-07-31T05:40:59;100227.88;;;15.90;100.00
29569;BME280;16501;51.462;14.346;2022-07-31T05:43:25;100203.97;;;15.80;100.00
29569;BME280;16501;51.462;14.346;2022-07-31T05:45:50;100233.78;;;16.09;100.00
29569;BME280;16501;51.462;14.346;2022-07-31T05:48:15;100237.69;;;16.06;100.00
29569;BME280;16501;51.462;14.346;2022-07-31T05:50:42;100228.94;;;16.10;100.00
29569;BME280;16501;51.462;14.346;2022-07-31T05:53:08;100213.50;;;15.99;100.00
29569;BME280;16501;51.462;14.346;2022-07-31T05:55:37;100232.28;;;16.31;100.00
29569;BME280;16501;51.462;14.346;2022-07-31T05:58:03;100218.41;;;16.27;100.00
29569;BME280;16501;51.462;14.346;2022-07-31T06:00:28;100218.91;;;16.31;100.00
29569;BME280;16501;51.462;14.346;2022-07-31T06:02:54;100227.66;;;16.50;100.00
29569;BME280;16501;51.462;14.346;2022-07-31T06:05:20;100222.50;;;16.60;100.00
29569;BME280;16501;51.462;14.346;2022-07-31T06:07:46;100220.66;;;16.68;100.00
29569;BME280;16501;51.462;14.346;2022-07-31T06:10:11;100233.03;;;16.76;100.00
29569;BME280;16501;51.462;14.346;2022-07-31T06:12:36;100227.84;;;16.81;100.00
29569;BME280;16501;51.462;14.346;2022-07-31T06:15:02;100239.72;;;16.85;100.00
29569;BME280;16501;51.462;14.346;2022-07-31T06:17:27;100228.13;;;16.88;100.00
29569;BME280;16501;51.462;14.346;2022-07-31T06:19:52;100229.16;;;16.96;100.00
29569;BME280;16501;51.462;14.346;2022-07-31T06:22:17;100234.53;;;17.06;100.00
29569;BME280;16501;51.462;14.346;2022-07-31T06:24:43;100244.25;;;17.22;100.00
29569;BME280;16501;51.462;14.346;2022-07-31T06:27:08;100233.97;;;17.19;100.00
29569;BME280;16501;51.462;14.346;2022-07-31T06:29:33;100255.03;;;17.40;100.00
29569;BME280;16501;51.462;14.346;2022-07-31T06:31:59;100237.47;;;17.47;100.00
29569;BME280;16501;51.462;14.346;2022-07-31T06:34:24;100262.13;;;17.64;100.00
29569;BME280;16501;51.462;14.346;2022-07-31T06:36:49;100256.69;;;17.71;100.00
29569;BME280;16501;51.462;14.346;2022-07-31T06:39:15;100242.97;;;17.81;100.00
29569;BME280;16501;51.462;14.346;2022-07-31T06:41:41;100262.22;;;18.00;100.00
29569;BME280;16501;51.462;14.346;2022-07-31T06:44:11;100247.56;;;17.96;97.34
29569;BME280;16501;51.462;14.346;2022-07-31T06:46:37;100247.00;;;18.03;98.27
29569;BME280;16501;51.462;14.346;2022-07-31T06:49:02;100230.94;;;18.11;98.46
29569;BME280;16501;51.462;14.346;2022-07-31T06:51:27;100249.16;;;18.27;96.72
29569;BME280;16501;51.462;14.346;2022-07-31T06:53:53;100256.28;;;18.39;96.94
29569;BME280;16501;51.462;14.346;2022-07-31T06:56:18;100240.47;;;18.44;96.59
29569;BME280;16501;51.462;14.346;2022-07-31T06:58:43;100257.63;;;18.63;94.93
29569;BME280;16501;51.462;14.346;2022-07-31T07:01:08;100253.91;;;18.74;94.27
29569;BME280;16501;51.462;14.346;2022-07-31T07:03:34;100254.63;;;18.80;92.50
29569;BME280;16501;51.462;14.346;2022-07-31T07:05:59;100259.75;;;18.87;92.76
29569;BME280;16501;51.462;14.346;2022-07-31T07:08:24;100241.44;;;18.82;92.37
29569;BME280;16501;51.462;14.346;2022-07-31T07:10:49;100261.00;;;18.92;91.14
29569;BME280;16501;51.462;14.346;2022-07-31T07:13:16;100255.69;;;19.07;91.02
29569;BME280;16501;51.462;14.346;2022-07-31T07:15:41;100245.53;;;19.12;90.39
29569;BME280;16501;51.462;14.346;2022-07-31T07:18:06;100252.41;;;19.22;89.73
29569;BME280;16501;51.462;14.346;2022-07-31T07:20:32;100247.66;;;19.30;89.55
29569;BME280;16501;51.462;14.346;2022-07-31T07:22:57;100257.59;;;19.43;87.26
29569;BME280;16501;51.462;14.346;2022-07-31T07:25:22;100249.75;;;19.49;87.20
29569;BME280;16501;51.462;14.346;2022-07-31T07:27:47;100260.06;;;19.52;84.94
29569;BME280;16501;51.462;14.346;2022-07-31T07:30:13;100253.06;;;19.53;85.06
29569;BME280;16501;51.462;14.346;2022-07-31T07:32:38;100264.13;;;19.56;84.36
29569;BME280;16501;51.462;14.346;2022-07-31T07:35:03;100248.59;;;19.57;85.37
29569;BME280;16501;51.462;14.346;2022-07-31T07:37:29;100249.00;;;19.67;84.53
29569;BME280;16501;51.462;14.346;2022-07-31T07:39:55;100261.16;;;19.87;83.40
29569;BME280;16501;51.462;14.346;2022-07-31T07:42:20;100262.53;;;19.99;83.54
29569;BME280;16501;51.462;14.346;2022-07-31T07:44:46;100225.72;;;19.88;83.81
29569;BME280;16501;51.462;14.346;2022-07-31T07:47:11;100234.09;;;19.99;83.72
29569;BME280;16501;51.462;14.346;2022-07-31T07:49:36;100251.31;;;20.07;82.92
29569;BME280;16501;51.462;14.346;2022-07-31T07:52:02;100258.06;;;20.23;82.05
29569;BME280;16501;51.462;14.346;2022-07-31T07:54:28;100240.97;;;20.23;81.84
29569;BME280;16501;51.462;14.346;2022-07-31T07:56:54;100233.19;;;20.23;81.40
29569;BME280;16501;51.462;14.346;2022-07-31T07:59:19;100233.34;;;20.31;80.89
29569;BME280;16501;51.462;14.346;2022-07-31T08:01:44;100240.94;;;20.42;81.06
29569;BME280;16501;51.462;14.346;2022-07-31T08:04:09;100253.22;;;20.50;78.72
29569;BME280;16501;51.462;14.346;2022-07-31T08:06:35;100239.88;;;20.58;79.66
29569;BME280;16501;51.462;14.346;2022-07-31T08:09:00;100245.50;;;20.64;76.36
29569;BME280;16501;51.462;14.346;2022-07-31T08:11:25;100248.38;;;20.77;78.21
29569;BME280;16501;51.462;14.346;2022-07-31T08:13:51;100239.41;;;20.73;76.48
29569;BME280;16501;51.462;14.346;2022-07-31T08:16:18;100245.97;;;20.95;75.63
29569;BME280;16501;51.462;14.346;2022-07-31T08:18:44;100225.50;;;20.96;75.14
29569;BME280;16501;51.462;14.346;2022-07-31T08:21:09;100214.22;;;21.04;74.89
29569;BME280;16501;51.462;14.346;2022-07-31T08:23:35;100225.81;;;21.19;73.89
29569;BME280;16501;51.462;14.346;2022-07-31T08:26:00;100213.44;;;21.30;73.51
29569;BME280;16501;51.462;14.346;2022-07-31T08:28:28;100227.88;;;21.59;73.59
29569;BME280;16501;51.462;14.346;2022-07-31T08:30:53;100204.50;;;21.60;71.86
29569;BME280;16501;51.462;14.346;2022-07-31T08:33:19;100212.44;;;21.75;71.87
29569;BME280;16501;51.462;14.346;2022-07-31T08:35:44;100210.75;;;21.93;72.82
29569;BME280;16501;51.462;14.346;2022-07-31T08:38:09;100218.34;;;22.12;69.54
29569;BME280;16501;51.462;14.346;2022-07-31T08:40:36;100229.13;;;22.19;66.98
29569;BME280;16501;51.462;14.346;2022-07-31T08:43:03;100232.03;;;22.27;67.94
29569;BME280;16501;51.462;14.346;2022-07-31T08:45:29;100214.84;;;22.40;69.94
29569;BME280;16501;51.462;14.346;2022-07-31T08:47:55;100211.50;;;22.49;67.94
29569;BME280;16501;51.462;14.346;2022-07-31T08:50:21;100207.09;;;22.48;67.87
29569;BME280;16501;51.462;14.346;2022-07-31T08:52:47;100223.53;;;22.76;66.98
29569;BME280;16501;51.462;14.346;2022-07-31T08:55:14;100204.63;;;22.73;64.72
29569;BME280;16501;51.462;14.346;2022-07-31T08:57:39;100206.16;;;22.74;64.42
29569;BME280;16501;51.462;14.346;2022-07-31T09:00:07;100190.91;;;22.72;64.66
29569;BME280;16501;51.462;14.346;2022-07-31T09:02:34;100220.44;;;22.95;63.47
29569;BME280;16501;51.462;14.346;2022-07-31T09:05:02;100201.09;;;22.88;63.14
29569;BME280;16501;51.462;14.346;2022-07-31T09:07:29;100198.31;;;22.96;62.84
29569;BME280;16501;51.462;14.346;2022-07-31T09:09:54;100203.31;;;23.03;62.87
29569;BME280;16501;51.462;14.346;2022-07-31T09:12:30;100191.03;;;22.95;61.91
29569;BME280;16501;51.462;14.346;2022-07-31T09:14:56;100212.19;;;23.21;64.14
29569;BME280;16501;51.462;14.346;2022-07-31T09:17:31;100212.66;;;23.32;60.27
29569;BME280;16501;51.462;14.346;2022-07-31T09:19:56;100196.69;;;23.45;62.76
29569;BME280;16501;51.462;14.346;2022-07-31T09:22:23;100204.34;;;23.58;62.08
29569;BME280;16501;51.462;14.346;2022-07-31T09:24:50;100205.94;;;23.74;59.35
29569;BME280;16501;51.462;14.346;2022-07-31T09:27:15;100214.56;;;23.82;59.54
29569;BME280;16501;51.462;14.346;2022-07-31T09:29:43;100207.44;;;23.75;57.16
29569;BME280;16501;51.462;14.346;2022-07-31T09:32:17;100197.94;;;23.80;59.52
29569;BME280;16501;51.462;14.346;2022-07-31T09:34:43;100177.69;;;23.78;57.57
29569;BME280;16501;51.462;14.346;2022-07-31T09:37:14;100198.00;;;23.96;57.23
29569;BME280;16501;51.462;14.346;2022-07-31T09:39:40;100181.59;;;24.12;58.21
29569;BME280;16501;51.462;14.346;2022-07-31T09:42:06;100181.41;;;24.33;57.84
29569;BME280;16501;51.462;14.346;2022-07-31T09:44:42;100156.22;;;24.39;54.68
29569;BME280;16501;51.462;14.346;2022-07-31T09:47:24;100189.84;;;24.54;55.10
29569;BME280;16501;51.462;14.346;2022-07-31T09:49:53;100176.28;;;24.54;56.89
29569;BME280;16501;51.462;14.346;2022-07-31T09:52:18;100158.31;;;24.61;54.81
29569;BME280;16501;51.462;14.346;2022-07-31T09:54:44;100156.97;;;24.70;52.83
29569;BME280;16501;51.462;14.346;2022-07-31T09:57:13;100172.97;;;24.89;52.10
29569;BME280;16501;51.462;14.346;2022-07-31T09:59:39;100161.16;;;24.69;50.88
29569;BME280;16501;51.462;14.346;2022-07-31T10:02:07;100158.22;;;25.00;53.75
29569;BME280;16501;51.462;14.346;2022-07-31T10:04:34;100172.91;;;25.27;53.00
29569;BME280;16501;51.462;14.346;2022-07-31T10:06:59;100159.66;;;25.39;51.54
29569;BME280;16501;51.462;14.346;2022-07-31T10:09:26;100122.78;;;25.20;50.50
29569;BME280;16501;51.462;14.346;2022-07-31T10:11:52;100153.16;;;25.31;50.60
29569;BME280;16501;51.462;14.346;2022-07-31T10:14:27;100161.47;;;25.52;50.91
29569;BME280;16501;51.462;14.346;2022-07-31T10:16:56;100137.88;;;25.62;51.32
29569;BME280;16501;51.462;14.346;2022-07-31T10:19:26;100146.28;;;25.67;49.26
29569;BME280;16501;51.462;14.346;2022-07-31T10:21:56;100149.50;;;25.71;49.51
29569;BME280;16501;51.462;14.346;2022-07-31T10:24:25;100155.25;;;25.71;47.43
29569;BME280;16501;51.462;14.346;2022-07-31T10:26:55;100141.78;;;25.82;49.52
29569;BME280;16501;51.462;14.346;2022-07-31T10:29:21;100151.50;;;25.94;48.62
29569;BME280;16501;51.462;14.346;2022-07-31T10:31:47;100130.81;;;25.95;47.85
29569;BME280;16501;51.462;14.346;2022-07-31T10:34:14;100140.31;;;26.06;49.12
29569;BME280;16501;51.462;14.346;2022-07-31T10:36:42;100114.09;;;26.02;47.69
29569;BME280;16501;51.462;14.346;2022-07-31T10:45:09;100137.78;;;26.52;46.39
29569;BME280;16501;51.462;14.346;2022-07-31T10:47:35;100135.78;;;26.63;46.54
29569;BME280;16501;51.462;14.346;2022-07-31T10:50:01;100128.34;;;26.60;46.30
29569;BME280;16501;51.462;14.346;2022-07-31T10:52:36;100119.06;;;26.69;44.94
29569;BME280;16501;51.462;14.346;2022-07-31T10:55:14;100122.69;;;26.69;44.57
29569;BME280;16501;51.462;14.346;2022-07-31T10:57:39;100112.63;;;26.78;44.55
29569;BME280;16501;51.462;14.346;2022-07-31T11:00:12;100123.97;;;26.94;44.81
29569;BME280;16501;51.462;14.346;2022-07-31T11:02:38;100115.50;;;26.96;44.00
29569;BME280;16501;51.462;14.346;2022-07-31T11:05:07;100111.94;;;27.05;44.15
29569;BME280;16501;51.462;14.346;2022-07-31T11:07:33;100105.38;;;26.77;43.46
29569;BME280;16501;51.462;14.346;2022-07-31T11:10:09;100114.22;;;27.06;44.62
29569;BME280;16501;51.462;14.346;2022-07-31T11:12:34;100102.81;;;26.99;42.78
29569;BME280;16501;51.462;14.346;2022-07-31T11:15:00;100107.22;;;27.00;42.75
29569;BME280;16501;51.462;14.346;2022-07-31T11:17:33;100110.97;;;27.20;42.55
29569;BME280;16501;51.462;14.346;2022-07-31T11:19:58;100103.97;;;27.13;42.51
29569;BME280;16501;51.462;14.346;2022-07-31T11:22:23;100107.78;;;27.33;43.65
29569;BME280;16501;51.462;14.346;2022-07-31T11:24:53;100107.66;;;27.41;42.22
29569;BME280;16501;51.462;14.346;2022-07-31T11:27:28;100100.19;;;27.38;42.48
29569;BME280;16501;51.462;14.346;2022-07-31T11:30:03;100094.97;;;27.26;42.99
29569;BME280;16501;51.462;14.346;2022-07-31T11:32:28;100090.13;;;27.02;42.78
29569;BME280;16501;51.462;14.346;2022-07-31T11:34:55;100102.28;;;27.10;43.83
29569;BME280;16501;51.462;14.346;2022-07-31T11:37:26;100106.75;;;27.38;42.12
29569;BME280;16501;51.462;14.346;2022-07-31T11:39:54;100102.63;;;27.59;41.30
29569;BME280;16501;51.462;14.346;2022-07-31T11:42:20;100092.88;;;27.54;41.98
29569;BME280;16501;51.462;14.346;2022-07-31T11:44:46;100086.25;;;27.17;42.39
29569;BME280;16501;51.462;14.346;2022-07-31T11:47:12;100094.59;;;26.95;43.20
29569;BME280;16501;51.462;14.346;2022-07-31T11:49:37;100084.34;;;26.49;44.12
29569;BME280;16501;51.462;14.346;2022-07-31T11:52:04;100080.63;;;26.39;43.46
29569;BME280;16501;51.462;14.346;2022-07-31T11:54:31;100079.06;;;26.21;44.55
29569;BME280;16501;51.462;14.346;2022-07-31T11:56:56;100078.91;;;26.19;44.76
29569;BME280;16501;51.462;14.346;2022-07-31T11:59:29;100083.28;;;26.02;45.15
29569;BME280;16501;51.462;14.346;2022-07-31T12:02:06;100098.53;;;25.80;44.41
29569;BME280;16501;51.462;14.346;2022-07-31T12:04:32;100083.09;;;25.42;45.39
29569;BME280;16501;51.462;14.346;2022-07-31T12:06:58;100105.81;;;25.48;45.76
29569;BME280;16501;51.462;14.346;2022-07-31T12:09:24;100091.69;;;25.42;46.24
29569;BME280;16501;51.462;14.346;2022-07-31T12:11:50;100077.00;;;25.38;47.14
29569;BME280;16501;51.462;14.346;2022-07-31T12:14:30;100089.97;;;25.39;47.65
29569;BME280;16501;51.462;14.346;2022-07-31T12:16:55;100096.44;;;25.47;46.95
29569;BME280;16501;51.462;14.346;2022-07-31T12:19:28;100081.59;;;25.33;47.04
29569;BME280;16501;51.462;14.346;2022-07-31T12:21:53;100078.56;;;25.31;46.83
29569;BME280;16501;51.462;14.346;2022-07-31T12:24:19;100080.88;;;25.25;46.29
29569;BME280;16501;51.462;14.346;2022-07-31T12:26:57;100097.28;;;25.32;46.99
29569;BME280;16501;51.462;14.346;2022-07-31T12:29:32;100078.22;;;25.27;46.87
29569;BME280;16501;51.462;14.346;2022-07-31T12:31:58;100086.91;;;25.45;47.00
29569;BME280;16501;51.462;14.346;2022-07-31T12:34:35;100087.59;;;25.53;47.58
29569;BME280;16501;51.462;14.346;2022-07-31T12:37:06;100089.09;;;25.62;47.41
29569;BME280;16501;51.462;14.346;2022-07-31T12:39:35;100072.16;;;25.48;47.75
29569;BME280;16501;51.462;14.346;2022-07-31T12:42:01;100070.09;;;25.66;47.04
29569;BME280;16501;51.462;14.346;2022-07-31T12:44:26;100070.69;;;25.90;46.76